Terminal Aerodrome Forecast
Issued by NWS Memphis, TN

Home | Current Version | Previous Version | Text Only | Print | Product List | Glossary On
Versions: 1 2 3 4 5 6 7 8 9 10 11 12 13 14
230
FTUS44 KMEG 252326
TAFMKL
TAF
KMKL 252326Z 2600/2624 02004KT P6SM SCT250
     FM260600 00000KT 6SM BR SCT250
      TEMPO 2609/2613 3SM BR
     FM261600 VRB04KT P6SM VCTS SCT040CB SCT250=

USA.gov is the U.S. government's official web portal to all federal, state and local government web resources and services.